sensor_id;sensor_type;location;lat;lon;timestamp;P1;durP1;ratioP1;P2;durP2;ratioP2
5521;SDS011;2783;48.730;8.006;2022-11-14T00:00:34;11.38;;;6.22;;
5521;SDS011;2783;48.730;8.006;2022-11-14T00:03:01;12.25;;;7.20;;
5521;SDS011;2783;48.730;8.006;2022-11-14T00:05:28;11.98;;;7.60;;
5521;SDS011;2783;48.730;8.006;2022-11-14T00:07:53;11.85;;;7.10;;
5521;SDS011;2783;48.730;8.006;2022-11-14T00:10:19;15.52;;;8.38;;
5521;SDS011;2783;48.730;8.006;2022-11-14T00:12:45;15.77;;;7.70;;
5521;SDS011;2783;48.730;8.006;2022-11-14T00:15:11;15.23;;;8.07;;
5521;SDS011;2783;48.730;8.006;2022-11-14T00:17:37;13.82;;;7.80;;
5521;SDS011;2783;48.730;8.006;2022-11-14T00:20:03;16.42;;;8.13;;
5521;SDS011;2783;48.730;8.006;2022-11-14T00:22:30;14.10;;;7.40;;
5521;SDS011;2783;48.730;8.006;2022-11-14T00:24:56;15.73;;;7.75;;
5521;SDS011;2783;48.730;8.006;2022-11-14T00:27:21;16.73;;;8.48;;
5521;SDS011;2783;48.730;8.006;2022-11-14T00:29:47;14.43;;;8.15;;
5521;SDS011;2783;48.730;8.006;2022-11-14T00:32:12;13.68;;;7.47;;
5521;SDS011;2783;48.730;8.006;2022-11-14T00:34:38;13.50;;;7.50;;
5521;SDS011;2783;48.730;8.006;2022-11-14T00:37:03;11.35;;;6.45;;
5521;SDS011;2783;48.730;8.006;2022-11-14T00:39:29;12.88;;;6.78;;
5521;SDS011;2783;48.730;8.006;2022-11-14T00:41:54;12.38;;;6.65;;
5521;SDS011;2783;48.730;8.006;2022-11-14T00:44:19;11.93;;;7.32;;
5521;SDS011;2783;48.730;8.006;2022-11-14T00:46:45;12.13;;;6.72;;
5521;SDS011;2783;48.730;8.006;2022-11-14T00:49:10;10.85;;;6.28;;
5521;SDS011;2783;48.730;8.006;2022-11-14T00:51:36;12.95;;;6.50;;
5521;SDS011;2783;48.730;8.006;2022-11-14T00:54:01;11.27;;;6.50;;
5521;SDS011;2783;48.730;8.006;2022-11-14T00:56:27;12.15;;;6.20;;
5521;SDS011;2783;48.730;8.006;2022-11-14T00:58:53;12.13;;;6.57;;
5521;SDS011;2783;48.730;8.006;2022-11-14T01:01:18;11.73;;;5.95;;
5521;SDS011;2783;48.730;8.006;2022-11-14T01:03:47;15.38;;;8.88;;
5521;SDS011;2783;48.730;8.006;2022-11-14T01:06:14;12.32;;;7.00;;
5521;SDS011;2783;48.730;8.006;2022-11-14T01:08:40;12.95;;;6.28;;
5521;SDS011;2783;48.730;8.006;2022-11-14T01:11:08;12.80;;;6.65;;
5521;SDS011;2783;48.730;8.006;2022-11-14T01:13:35;14.15;;;7.50;;
5521;SDS011;2783;48.730;8.006;2022-11-14T01:16:01;15.27;;;7.45;;
5521;SDS011;2783;48.730;8.006;2022-11-14T01:18:27;11.43;;;6.28;;
5521;SDS011;2783;48.730;8.006;2022-11-14T01:20:52;12.05;;;6.93;;
5521;SDS011;2783;48.730;8.006;2022-11-14T01:23:18;12.52;;;6.90;;
5521;SDS011;2783;48.730;8.006;2022-11-14T01:25:43;15.38;;;7.20;;
5521;SDS011;2783;48.730;8.006;2022-11-14T01:28:11;14.20;;;7.63;;
5521;SDS011;2783;48.730;8.006;2022-11-14T01:30:41;13.98;;;7.75;;
5521;SDS011;2783;48.730;8.006;2022-11-14T01:33:06;15.77;;;7.63;;
5521;SDS011;2783;48.730;8.006;2022-11-14T01:35:33;13.82;;;8.25;;
5521;SDS011;2783;48.730;8.006;2022-11-14T01:37:59;15.25;;;7.93;;
5521;SDS011;2783;48.730;8.006;2022-11-14T01:40:25;17.45;;;8.93;;
5521;SDS011;2783;48.730;8.006;2022-11-14T01:48:22;12.82;;;7.43;;
5521;SDS011;2783;48.730;8.006;2022-11-14T01:54:07;15.02;;;7.53;;
5521;SDS011;2783;48.730;8.006;2022-11-14T01:56:39;14.70;;;8.32;;
5521;SDS011;2783;48.730;8.006;2022-11-14T01:59:11;13.05;;;7.38;;
5521;SDS011;2783;48.730;8.006;2022-11-14T02:01:45;12.25;;;7.50;;
5521;SDS011;2783;48.730;8.006;2022-11-14T02:04:26;14.90;;;8.07;;
5521;SDS011;2783;48.730;8.006;2022-11-14T02:06:56;13.88;;;7.85;;
5521;SDS011;2783;48.730;8.006;2022-11-14T02:09:24;16.08;;;7.68;;
5521;SDS011;2783;48.730;8.006;2022-11-14T02:11:53;13.10;;;7.95;;
5521;SDS011;2783;48.730;8.006;2022-11-14T02:14:20;12.15;;;7.15;;
5521;SDS011;2783;48.730;8.006;2022-11-14T02:16:46;17.50;;;8.32;;
5521;SDS011;2783;48.730;8.006;2022-11-14T02:19:13;14.63;;;8.02;;
5521;SDS011;2783;48.730;8.006;2022-11-14T02:21:39;15.05;;;8.73;;
5521;SDS011;2783;48.730;8.006;2022-11-14T02:24:07;16.08;;;8.98;;
5521;SDS011;2783;48.730;8.006;2022-11-14T02:26:35;16.38;;;8.40;;
5521;SDS011;2783;48.730;8.006;2022-11-14T02:29:01;14.98;;;7.93;;
5521;SDS011;2783;48.730;8.006;2022-11-14T02:31:26;15.57;;;7.97;;
5521;SDS011;2783;48.730;8.006;2022-11-14T02:33:52;14.98;;;8.48;;
5521;SDS011;2783;48.730;8.006;2022-11-14T02:36:17;17.13;;;8.70;;
5521;SDS011;2783;48.730;8.006;2022-11-14T02:38:42;14.90;;;8.43;;
5521;SDS011;2783;48.730;8.006;2022-11-14T02:41:08;16.45;;;8.18;;
5521;SDS011;2783;48.730;8.006;2022-11-14T02:43:33;15.57;;;8.27;;
5521;SDS011;2783;48.730;8.006;2022-11-14T02:45:59;14.43;;;9.45;;
5521;SDS011;2783;48.730;8.006;2022-11-14T02:48:24;12.40;;;7.43;;
5521;SDS011;2783;48.730;8.006;2022-11-14T02:50:50;16.60;;;8.43;;
5521;SDS011;2783;48.730;8.006;2022-11-14T02:53:15;19.60;;;10.02;;
5521;SDS011;2783;48.730;8.006;2022-11-14T02:55:41;20.00;;;9.45;;
5521;SDS011;2783;48.730;8.006;2022-11-14T02:58:06;16.33;;;8.82;;
5521;SDS011;2783;48.730;8.006;2022-11-14T03:00:32;17.10;;;8.63;;
5521;SDS011;2783;48.730;8.006;2022-11-14T03:02:57;19.00;;;9.93;;
5521;SDS011;2783;48.730;8.006;2022-11-14T03:05:23;18.77;;;9.57;;
5521;SDS011;2783;48.730;8.006;2022-11-14T03:07:52;19.15;;;9.20;;
5521;SDS011;2783;48.730;8.006;2022-11-14T03:10:18;24.38;;;9.82;;
5521;SDS011;2783;48.730;8.006;2022-11-14T03:12:44;21.52;;;10.00;;
5521;SDS011;2783;48.730;8.006;2022-11-14T03:15:09;22.77;;;9.70;;
5521;SDS011;2783;48.730;8.006;2022-11-14T03:17:35;16.52;;;8.48;;
5521;SDS011;2783;48.730;8.006;2022-11-14T03:20:00;18.67;;;8.73;;
5521;SDS011;2783;48.730;8.006;2022-11-14T03:22:26;18.73;;;9.68;;
5521;SDS011;2783;48.730;8.006;2022-11-14T03:24:52;18.65;;;8.48;;
5521;SDS011;2783;48.730;8.006;2022-11-14T03:27:17;17.77;;;8.30;;
5521;SDS011;2783;48.730;8.006;2022-11-14T03:29:43;19.02;;;8.98;;
5521;SDS011;2783;48.730;8.006;2022-11-14T03:32:08;13.90;;;7.55;;
5521;SDS011;2783;48.730;8.006;2022-11-14T03:34:34;18.70;;;8.55;;
5521;SDS011;2783;48.730;8.006;2022-11-14T03:36:59;19.75;;;9.07;;
5521;SDS011;2783;48.730;8.006;2022-11-14T03:39:25;18.48;;;8.82;;
5521;SDS011;2783;48.730;8.006;2022-11-14T03:41:51;19.50;;;9.25;;
5521;SDS011;2783;48.730;8.006;2022-11-14T03:44:17;20.25;;;9.30;;
5521;SDS011;2783;48.730;8.006;2022-11-14T03:46:42;17.77;;;9.50;;
5521;SDS011;2783;48.730;8.006;2022-11-14T03:49:07;21.83;;;9.27;;
5521;SDS011;2783;48.730;8.006;2022-11-14T03:51:33;18.88;;;8.77;;
5521;SDS011;2783;48.730;8.006;2022-11-14T03:53:59;28.17;;;10.30;;
5521;SDS011;2783;48.730;8.006;2022-11-14T03:56:24;20.67;;;9.00;;
5521;SDS011;2783;48.730;8.006;2022-11-14T03:58:49;22.08;;;9.60;;
5521;SDS011;2783;48.730;8.006;2022-11-14T04:01:15;18.55;;;9.52;;
5521;SDS011;2783;48.730;8.006;2022-11-14T04:03:40;16.92;;;9.52;;
5521;SDS011;2783;48.730;8.006;2022-11-14T04:06:06;20.38;;;9.02;;
5521;SDS011;2783;48.730;8.006;2022-11-14T04:08:31;20.25;;;9.40;;
5521;SDS011;2783;48.730;8.006;2022-11-14T04:10:56;19.23;;;9.10;;
5521;SDS011;2783;48.730;8.006;2022-11-14T04:13:22;22.38;;;10.15;;
5521;SDS011;2783;48.730;8.006;2022-11-14T04:15:53;16.65;;;9.05;;
5521;SDS011;2783;48.730;8.006;2022-11-14T04:18:19;18.95;;;9.55;;
5521;SDS011;2783;48.730;8.006;2022-11-14T04:20:45;17.08;;;8.55;;
5521;SDS011;2783;48.730;8.006;2022-11-14T04:23:10;18.60;;;9.20;;
5521;SDS011;2783;48.730;8.006;2022-11-14T04:25:36;16.73;;;7.55;;
5521;SDS011;2783;48.730;8.006;2022-11-14T04:28:01;17.42;;;9.05;;
5521;SDS011;2783;48.730;8.006;2022-11-14T04:30:27;18.67;;;9.77;;
5521;SDS011;2783;48.730;8.006;2022-11-14T04:32:52;16.02;;;8.20;;
5521;SDS011;2783;48.730;8.006;2022-11-14T04:35:17;17.60;;;9.25;;
5521;SDS011;2783;48.730;8.006;2022-11-14T04:37:43;16.52;;;9.25;;
5521;SDS011;2783;48.730;8.006;2022-11-14T04:40:08;16.38;;;8.50;;
5521;SDS011;2783;48.730;8.006;2022-11-14T04:42:34;17.77;;;9.05;;
5521;SDS011;2783;48.730;8.006;2022-11-14T04:44:59;18.45;;;8.85;;
5521;SDS011;2783;48.730;8.006;2022-11-14T04:47:25;17.05;;;8.98;;
5521;SDS011;2783;48.730;8.006;2022-11-14T04:49:50;18.67;;;8.45;;
5521;SDS011;2783;48.730;8.006;2022-11-14T04:52:15;17.92;;;8.95;;
5521;SDS011;2783;48.730;8.006;2022-11-14T04:54:41;19.13;;;9.27;;
5521;SDS011;2783;48.730;8.006;2022-11-14T04:57:06;23.30;;;10.88;;
5521;SDS011;2783;48.730;8.006;2022-11-14T04:59:32;36.70;;;10.10;;
5521;SDS011;2783;48.730;8.006;2022-11-14T05:01:57;19.30;;;8.57;;
5521;SDS011;2783;48.730;8.006;2022-11-14T05:04:22;20.58;;;8.88;;
5521;SDS011;2783;48.730;8.006;2022-11-14T05:06:48;23.80;;;9.50;;
5521;SDS011;2783;48.730;8.006;2022-11-14T05:09:13;22.63;;;10.60;;
5521;SDS011;2783;48.730;8.006;2022-11-14T05:11:39;20.15;;;9.95;;
5521;SDS011;2783;48.730;8.006;2022-11-14T05:14:04;21.10;;;8.35;;
5521;SDS011;2783;48.730;8.006;2022-11-14T05:16:29;15.95;;;7.30;;
5521;SDS011;2783;48.730;8.006;2022-11-14T05:18:55;16.52;;;7.82;;
5521;SDS011;2783;48.730;8.006;2022-11-14T05:21:20;15.27;;;6.80;;
5521;SDS011;2783;48.730;8.006;2022-11-14T05:23:46;13.73;;;6.90;;
5521;SDS011;2783;48.730;8.006;2022-11-14T05:26:13;21.33;;;7.88;;
5521;SDS011;2783;48.730;8.006;2022-11-14T05:28:40;13.65;;;6.50;;
5521;SDS011;2783;48.730;8.006;2022-11-14T05:31:06;11.60;;;6.40;;
5521;SDS011;2783;48.730;8.006;2022-11-14T05:33:33;12.60;;;7.05;;
5521;SDS011;2783;48.730;8.006;2022-11-14T05:36:03;13.38;;;6.55;;
5521;SDS011;2783;48.730;8.006;2022-11-14T05:38:29;13.25;;;6.35;;
5521;SDS011;2783;48.730;8.006;2022-11-14T05:40:55;14.50;;;6.97;;
5521;SDS011;2783;48.730;8.006;2022-11-14T05:43:20;11.27;;;6.10;;
5521;SDS011;2783;48.730;8.006;2022-11-14T05:45:46;10.45;;;5.50;;
5521;SDS011;2783;48.730;8.006;2022-11-14T05:48:11;14.45;;;6.70;;
5521;SDS011;2783;48.730;8.006;2022-11-14T05:50:36;12.75;;;6.75;;
5521;SDS011;2783;48.730;8.006;2022-11-14T05:53:02;10.80;;;5.80;;
5521;SDS011;2783;48.730;8.006;2022-11-14T05:55:28;12.07;;;6.18;;
5521;SDS011;2783;48.730;8.006;2022-11-14T05:57:56;14.57;;;7.32;;
5521;SDS011;2783;48.730;8.006;2022-11-14T06:00:22;17.63;;;7.68;;
5521;SDS011;2783;48.730;8.006;2022-11-14T06:02:51;15.63;;;6.35;;
5521;SDS011;2783;48.730;8.006;2022-11-14T06:05:19;16.67;;;7.90;;
5521;SDS011;2783;48.730;8.006;2022-11-14T06:07:46;20.13;;;8.30;;
5521;SDS011;2783;48.730;8.006;2022-11-14T06:10:11;20.77;;;8.02;;
5521;SDS011;2783;48.730;8.006;2022-11-14T06:12:37;22.65;;;8.30;;
5521;SDS011;2783;48.730;8.006;2022-11-14T06:15:03;16.92;;;8.00;;
5521;SDS011;2783;48.730;8.006;2022-11-14T06:17:29;20.80;;;8.30;;
5521;SDS011;2783;48.730;8.006;2022-11-14T06:19:54;19.63;;;8.55;;
5521;SDS011;2783;48.730;8.006;2022-11-14T06:22:20;19.70;;;8.75;;
5521;SDS011;2783;48.730;8.006;2022-11-14T06:24:45;17.25;;;8.00;;
5521;SDS011;2783;48.730;8.006;2022-11-14T06:27:11;18.70;;;8.55;;
5521;SDS011;2783;48.730;8.006;2022-11-14T06:29:36;21.80;;;8.95;;
5521;SDS011;2783;48.730;8.006;2022-11-14T06:32:01;19.38;;;8.27;;
5521;SDS011;2783;48.730;8.006;2022-11-14T06:34:27;17.73;;;8.07;;
5521;SDS011;2783;48.730;8.006;2022-11-14T06:36:52;15.90;;;7.72;;
5521;SDS011;2783;48.730;8.006;2022-11-14T06:39:17;16.33;;;7.68;;
5521;SDS011;2783;48.730;8.006;2022-11-14T06:41:43;14.18;;;7.38;;
5521;SDS011;2783;48.730;8.006;2022-11-14T06:44:08;17.38;;;7.65;;
5521;SDS011;2783;48.730;8.006;2022-11-14T06:46:34;17.30;;;7.55;;
5521;SDS011;2783;48.730;8.006;2022-11-14T06:48:59;13.60;;;6.68;;
5521;SDS011;2783;48.730;8.006;2022-11-14T06:51:24;14.43;;;6.82;;
5521;SDS011;2783;48.730;8.006;2022-11-14T06:53:50;14.13;;;6.55;;
5521;SDS011;2783;48.730;8.006;2022-11-14T06:56:16;17.85;;;7.97;;
5521;SDS011;2783;48.730;8.006;2022-11-14T06:58:43;18.50;;;8.27;;
5521;SDS011;2783;48.730;8.006;2022-11-14T07:01:14;19.38;;;8.23;;
5521;SDS011;2783;48.730;8.006;2022-11-14T07:06:10;20.85;;;9.27;;
5521;SDS011;2783;48.730;8.006;2022-11-14T07:08:37;19.15;;;7.78;;
5521;SDS011;2783;48.730;8.006;2022-11-14T07:11:06;22.10;;;8.70;;
5521;SDS011;2783;48.730;8.006;2022-11-14T07:13:33;19.23;;;8.18;;
5521;SDS011;2783;48.730;8.006;2022-11-14T07:15:59;23.58;;;10.10;;
5521;SDS011;2783;48.730;8.006;2022-11-14T07:18:25;20.48;;;8.50;;
5521;SDS011;2783;48.730;8.006;2022-11-14T07:21:01;17.20;;;8.35;;
5521;SDS011;2783;48.730;8.006;2022-11-14T07:23:29;17.98;;;7.47;;
5521;SDS011;2783;48.730;8.006;2022-11-14T07:25:58;16.75;;;8.13;;
5521;SDS011;2783;48.730;8.006;2022-11-14T07:28:28;17.25;;;8.65;;
5521;SDS011;2783;48.730;8.006;2022-11-14T07:30:55;18.70;;;7.90;;
5521;SDS011;2783;48.730;8.006;2022-11-14T07:33:21;26.08;;;9.27;;
5521;SDS011;2783;48.730;8.006;2022-11-14T07:35:46;20.45;;;8.55;;
5521;SDS011;2783;48.730;8.006;2022-11-14T07:38:11;18.92;;;9.05;;
5521;SDS011;2783;48.730;8.006;2022-11-14T07:40:37;18.52;;;7.95;;
5521;SDS011;2783;48.730;8.006;2022-11-14T07:43:02;17.33;;;8.30;;
5521;SDS011;2783;48.730;8.006;2022-11-14T07:45:28;20.73;;;8.35;;
5521;SDS011;2783;48.730;8.006;2022-11-14T07:47:57;20.20;;;9.30;;
5521;SDS011;2783;48.730;8.006;2022-11-14T07:50:24;17.92;;;8.15;;
5521;SDS011;2783;48.730;8.006;2022-11-14T07:52:55;16.15;;;7.78;;
5521;SDS011;2783;48.730;8.006;2022-11-14T07:55:21;16.75;;;9.88;;
5521;SDS011;2783;48.730;8.006;2022-11-14T07:57:47;21.25;;;9.57;;
5521;SDS011;2783;48.730;8.006;2022-11-14T08:00:16;21.33;;;9.20;;
5521;SDS011;2783;48.730;8.006;2022-11-14T08:02:41;16.73;;;9.25;;
5521;SDS011;2783;48.730;8.006;2022-11-14T08:05:07;16.17;;;8.45;;
5521;SDS011;2783;48.730;8.006;2022-11-14T08:07:33;20.08;;;8.60;;
5521;SDS011;2783;48.730;8.006;2022-11-14T08:09:58;15.95;;;7.93;;
5521;SDS011;2783;48.730;8.006;2022-11-14T08:12:23;17.48;;;8.05;;
5521;SDS011;2783;48.730;8.006;2022-11-14T08:14:49;14.40;;;7.55;;
5521;SDS011;2783;48.730;8.006;2022-11-14T08:17:14;14.13;;;6.50;;
5521;SDS011;2783;48.730;8.006;2022-11-14T08:19:40;18.33;;;7.88;;
5521;SDS011;2783;48.730;8.006;2022-11-14T08:22:05;17.33;;;7.63;;
5521;SDS011;2783;48.730;8.006;2022-11-14T08:24:31;17.67;;;7.53;;
5521;SDS011;2783;48.730;8.006;2022-11-14T08:26:56;15.68;;;7.45;;
5521;SDS011;2783;48.730;8.006;2022-11-14T08:29:22;14.88;;;7.32;;
5521;SDS011;2783;48.730;8.006;2022-11-14T08:31:48;14.73;;;7.13;;
5521;SDS011;2783;48.730;8.006;2022-11-14T08:34:13;11.18;;;6.18;;
5521;SDS011;2783;48.730;8.006;2022-11-14T08:36:39;17.48;;;7.60;;
5521;SDS011;2783;48.730;8.006;2022-11-14T08:39:04;14.93;;;6.53;;
5521;SDS011;2783;48.730;8.006;2022-11-14T08:41:29;13.05;;;6.60;;
5521;SDS011;2783;48.730;8.006;2022-11-14T08:43:55;11.50;;;6.32;;
5521;SDS011;2783;48.730;8.006;2022-11-14T08:46:20;12.38;;;6.53;;
5521;SDS011;2783;48.730;8.006;2022-11-14T08:48:46;10.70;;;5.90;;
5521;SDS011;2783;48.730;8.006;2022-11-14T08:51:11;11.52;;;6.82;;
5521;SDS011;2783;48.730;8.006;2022-11-14T08:53:36;13.63;;;6.10;;
5521;SDS011;2783;48.730;8.006;2022-11-14T08:56:02;12.35;;;6.75;;
5521;SDS011;2783;48.730;8.006;2022-11-14T08:58:28;14.15;;;6.38;;
5521;SDS011;2783;48.730;8.006;2022-11-14T09:00:58;10.23;;;5.75;;
5521;SDS011;2783;48.730;8.006;2022-11-14T09:03:25;11.55;;;5.60;;
5521;SDS011;2783;48.730;8.006;2022-11-14T09:05:51;10.40;;;5.32;;
5521;SDS011;2783;48.730;8.006;2022-11-14T09:08:17;13.45;;;5.47;;
5521;SDS011;2783;48.730;8.006;2022-11-14T09:10:42;14.38;;;5.80;;
5521;SDS011;2783;48.730;8.006;2022-11-14T09:13:08;8.85;;;5.30;;
5521;SDS011;2783;48.730;8.006;2022-11-14T09:15:33;11.02;;;6.03;;
5521;SDS011;2783;48.730;8.006;2022-11-14T09:17:58;12.15;;;5.32;;
5521;SDS011;2783;48.730;8.006;2022-11-14T09:20:24;12.10;;;6.50;;
5521;SDS011;2783;48.730;8.006;2022-11-14T09:22:50;10.07;;;5.63;;
5521;SDS011;2783;48.730;8.006;2022-11-14T09:25:17;11.85;;;6.30;;
5521;SDS011;2783;48.730;8.006;2022-11-14T09:27:44;9.38;;;5.65;;
5521;SDS011;2783;48.730;8.006;2022-11-14T09:30:09;11.52;;;5.25;;
5521;SDS011;2783;48.730;8.006;2022-11-14T09:32:36;12.98;;;5.88;;
5521;SDS011;2783;48.730;8.006;2022-11-14T09:35:01;12.48;;;6.32;;
5521;SDS011;2783;48.730;8.006;2022-11-14T09:37:26;9.35;;;5.35;;
5521;SDS011;2783;48.730;8.006;2022-11-14T09:39:52;12.40;;;6.57;;
5521;SDS011;2783;48.730;8.006;2022-11-14T09:42:23;11.88;;;6.15;;
5521;SDS011;2783;48.730;8.006;2022-11-14T09:45:31;15.60;;;6.95;;
5521;SDS011;2783;48.730;8.006;2022-11-14T09:48:06;13.13;;;6.97;;
5521;SDS011;2783;48.730;8.006;2022-11-14T09:50:39;17.90;;;6.13;;
5521;SDS011;2783;48.730;8.006;2022-11-14T09:53:20;16.30;;;6.80;;
5521;SDS011;2783;48.730;8.006;2022-11-14T09:55:53;14.35;;;6.05;;
5521;SDS011;2783;48.730;8.006;2022-11-14T09:58:19;10.13;;;5.18;;
5521;SDS011;2783;48.730;8.006;2022-11-14T10:00:49;13.15;;;6.20;;
5521;SDS011;2783;48.730;8.006;2022-11-14T10:11:22;13.65;;;7.72;;
5521;SDS011;2783;48.730;8.006;2022-11-14T10:14:06;14.23;;;7.03;;
5521;SDS011;2783;48.730;8.006;2022-11-14T10:17:13;14.90;;;8.00;;
5521;SDS011;2783;48.730;8.006;2022-11-14T10:20:17;14.95;;;8.00;;
5521;SDS011;2783;48.730;8.006;2022-11-14T10:25:26;13.00;;;7.15;;
5521;SDS011;2783;48.730;8.006;2022-11-14T10:31:18;14.25;;;7.68;;
5521;SDS011;2783;48.730;8.006;2022-11-14T10:34:02;15.50;;;8.52;;
5521;SDS011;2783;48.730;8.006;2022-11-14T10:39:53;18.50;;;8.35;;
5521;SDS011;2783;48.730;8.006;2022-11-14T10:42:24;14.32;;;8.02;;
5521;SDS011;2783;48.730;8.006;2022-11-14T10:45:10;13.23;;;8.05;;
5521;SDS011;2783;48.730;8.006;2022-11-14T10:47:47;13.23;;;7.75;;
5521;SDS011;2783;48.730;8.006;2022-11-14T10:50:24;14.38;;;7.55;;
5521;SDS011;2783;48.730;8.006;2022-11-14T10:52:58;22.05;;;11.90;;
5521;SDS011;2783;48.730;8.006;2022-11-14T10:55:28;15.30;;;8.75;;
5521;SDS011;2783;48.730;8.006;2022-11-14T10:57:54;14.60;;;8.85;;
5521;SDS011;2783;48.730;8.006;2022-11-14T11:00:20;16.27;;;8.52;;
5521;SDS011;2783;48.730;8.006;2022-11-14T11:05:20;13.68;;;8.13;;
5521;SDS011;2783;48.730;8.006;2022-11-14T11:07:47;11.43;;;7.50;;
5521;SDS011;2783;48.730;8.006;2022-11-14T11:10:32;11.65;;;7.20;;
5521;SDS011;2783;48.730;8.006;2022-11-14T11:13:32;13.35;;;7.72;;
5521;SDS011;2783;48.730;8.006;2022-11-14T11:16:00;14.70;;;7.75;;
5521;SDS011;2783;48.730;8.006;2022-11-14T11:18:31;13.15;;;7.47;;
5521;SDS011;2783;48.730;8.006;2022-11-14T11:21:02;14.15;;;7.00;;
5521;SDS011;2783;48.730;8.006;2022-11-14T11:23:30;15.07;;;7.47;;
5521;SDS011;2783;48.730;8.006;2022-11-14T11:26:06;13.98;;;7.22;;
5521;SDS011;2783;48.730;8.006;2022-11-14T11:31:08;15.88;;;7.97;;
5521;SDS011;2783;48.730;8.006;2022-11-14T11:33:35;16.55;;;7.68;;
5521;SDS011;2783;48.730;8.006;2022-11-14T11:36:04;13.07;;;8.63;;
5521;SDS011;2783;48.730;8.006;2022-11-14T11:38:34;14.10;;;7.28;;
5521;SDS011;2783;48.730;8.006;2022-11-14T11:43:53;12.73;;;6.75;;
5521;SDS011;2783;48.730;8.006;2022-11-14T11:46:29;13.93;;;7.43;;
5521;SDS011;2783;48.730;8.006;2022-11-14T11:49:05;13.73;;;7.38;;
5521;SDS011;2783;48.730;8.006;2022-11-14T11:51:39;12.82;;;7.65;;
5521;SDS011;2783;48.730;8.006;2022-11-14T11:54:18;10.70;;;8.02;;
5521;SDS011;2783;48.730;8.006;2022-11-14T11:56:46;15.57;;;7.47;;
5521;SDS011;2783;48.730;8.006;2022-11-14T12:01:58;12.63;;;7.47;;
5521;SDS011;2783;48.730;8.006;2022-11-14T12:04:29;10.77;;;6.78;;
5521;SDS011;2783;48.730;8.006;2022-11-14T12:06:57;15.50;;;7.03;;
5521;SDS011;2783;48.730;8.006;2022-11-14T12:09:37;12.90;;;6.90;;
5521;SDS011;2783;48.730;8.006;2022-11-14T12:12:09;14.82;;;7.28;;
5521;SDS011;2783;48.730;8.006;2022-11-14T12:14:57;10.52;;;5.97;;
5521;SDS011;2783;48.730;8.006;2022-11-14T12:18:13;11.80;;;6.93;;
5521;SDS011;2783;48.730;8.006;2022-11-14T12:28:40;16.10;;;6.93;;
5521;SDS011;2783;48.730;8.006;2022-11-14T12:31:23;14.45;;;7.15;;
5521;SDS011;2783;48.730;8.006;2022-11-14T12:33:53;14.63;;;7.03;;
5521;SDS011;2783;48.730;8.006;2022-11-14T12:36:29;12.05;;;7.68;;
5521;SDS011;2783;48.730;8.006;2022-11-14T12:38:57;15.27;;;8.25;;
5521;SDS011;2783;48.730;8.006;2022-11-14T12:41:24;13.52;;;7.65;;
5521;SDS011;2783;48.730;8.006;2022-11-14T12:43:53;15.27;;;8.05;;
5521;SDS011;2783;48.730;8.006;2022-11-14T12:47:10;17.83;;;6.93;;
5521;SDS011;2783;48.730;8.006;2022-11-14T13:06:23;10.75;;;6.88;;
5521;SDS011;2783;48.730;8.006;2022-11-14T13:09:00;13.27;;;7.00;;
5521;SDS011;2783;48.730;8.006;2022-11-14T13:14:26;10.57;;;6.43;;
5521;SDS011;2783;48.730;8.006;2022-11-14T13:19:56;19.20;;;12.90;;
5521;SDS011;2783;48.730;8.006;2022-11-14T13:22:41;38.50;;;24.70;;
5521;SDS011;2783;48.730;8.006;2022-11-14T13:25:15;95.20;;;47.15;;
5521;SDS011;2783;48.730;8.006;2022-11-14T13:27:45;32.10;;;18.42;;
5521;SDS011;2783;48.730;8.006;2022-11-14T13:30:11;263.35;;;102.88;;
5521;SDS011;2783;48.730;8.006;2022-11-14T13:35:09;344.08;;;130.68;;
5521;SDS011;2783;48.730;8.006;2022-11-14T13:43:18;71.97;;;33.47;;
5521;SDS011;2783;48.730;8.006;2022-11-14T13:51:17;24.02;;;13.45;;
5521;SDS011;2783;48.730;8.006;2022-11-14T13:53:44;23.88;;;11.57;;
5521;SDS011;2783;48.730;8.006;2022-11-14T14:18:03;13.15;;;8.27;;
5521;SDS011;2783;48.730;8.006;2022-11-14T14:23:44;15.35;;;7.68;;
5521;SDS011;2783;48.730;8.006;2022-11-14T14:31:37;11.85;;;7.05;;
5521;SDS011;2783;48.730;8.006;2022-11-14T14:34:21;10.80;;;6.82;;
5521;SDS011;2783;48.730;8.006;2022-11-14T14:36:50;11.43;;;6.32;;
5521;SDS011;2783;48.730;8.006;2022-11-14T14:39:21;12.05;;;6.55;;
5521;SDS011;2783;48.730;8.006;2022-11-14T14:41:51;12.85;;;6.10;;
5521;SDS011;2783;48.730;8.006;2022-11-14T14:44:24;9.15;;;4.22;;
5521;SDS011;2783;48.730;8.006;2022-11-14T14:46:55;8.95;;;4.53;;
5521;SDS011;2783;48.730;8.006;2022-11-14T14:49:24;8.05;;;3.90;;
5521;SDS011;2783;48.730;8.006;2022-11-14T14:51:52;9.13;;;4.28;;
5521;SDS011;2783;48.730;8.006;2022-11-14T14:54:20;8.10;;;3.90;;
5521;SDS011;2783;48.730;8.006;2022-11-14T14:56:51;8.43;;;3.78;;
5521;SDS011;2783;48.730;8.006;2022-11-14T14:59:24;9.32;;;3.65;;
5521;SDS011;2783;48.730;8.006;2022-11-14T15:01:51;6.82;;;3.58;;
5521;SDS011;2783;48.730;8.006;2022-11-14T15:04:19;7.88;;;3.97;;
5521;SDS011;2783;48.730;8.006;2022-11-14T15:06:47;8.90;;;3.58;;
5521;SDS011;2783;48.730;8.006;2022-11-14T15:09:19;6.38;;;3.83;;
5521;SDS011;2783;48.730;8.006;2022-11-14T15:11:50;8.65;;;3.38;;
5521;SDS011;2783;48.730;8.006;2022-11-14T15:14:18;5.63;;;3.40;;
5521;SDS011;2783;48.730;8.006;2022-11-14T15:16:47;7.30;;;3.75;;
5521;SDS011;2783;48.730;8.006;2022-11-14T15:19:15;5.55;;;3.53;;
5521;SDS011;2783;48.730;8.006;2022-11-14T15:21:44;8.27;;;3.47;;
5521;SDS011;2783;48.730;8.006;2022-11-14T15:24:19;6.85;;;3.13;;
5521;SDS011;2783;48.730;8.006;2022-11-14T15:26:47;6.30;;;3.50;;
5521;SDS011;2783;48.730;8.006;2022-11-14T15:29:24;6.72;;;3.78;;
5521;SDS011;2783;48.730;8.006;2022-11-14T15:31:52;7.90;;;4.13;;
5521;SDS011;2783;48.730;8.006;2022-11-14T15:34:28;7.13;;;3.90;;
5521;SDS011;2783;48.730;8.006;2022-11-14T15:37:05;7.72;;;3.80;;
5521;SDS011;2783;48.730;8.006;2022-11-14T15:39:34;6.53;;;3.35;;
5521;SDS011;2783;48.730;8.006;2022-11-14T15:44:39;6.45;;;4.40;;
5521;SDS011;2783;48.730;8.006;2022-11-14T15:47:12;7.95;;;3.10;;
5521;SDS011;2783;48.730;8.006;2022-11-14T15:49:51;7.53;;;3.58;;
5521;SDS011;2783;48.730;8.006;2022-11-14T15:52:33;6.45;;;3.38;;
5521;SDS011;2783;48.730;8.006;2022-11-14T15:55:01;7.43;;;3.47;;
5521;SDS011;2783;48.730;8.006;2022-11-14T15:57:27;8.60;;;4.13;;
5521;SDS011;2783;48.730;8.006;2022-11-14T15:59:55;8.35;;;4.03;;
5521;SDS011;2783;48.730;8.006;2022-11-14T16:02:22;6.13;;;3.53;;
5521;SDS011;2783;48.730;8.006;2022-11-14T16:04:52;8.40;;;3.72;;
5521;SDS011;2783;48.730;8.006;2022-11-14T16:07:19;6.95;;;3.95;;
5521;SDS011;2783;48.730;8.006;2022-11-14T16:09:45;10.20;;;4.38;;
5521;SDS011;2783;48.730;8.006;2022-11-14T16:12:11;6.47;;;4.15;;
5521;SDS011;2783;48.730;8.006;2022-11-14T16:14:36;5.32;;;3.10;;
5521;SDS011;2783;48.730;8.006;2022-11-14T16:17:02;10.18;;;3.90;;
5521;SDS011;2783;48.730;8.006;2022-11-14T16:19:28;7.18;;;4.03;;
5521;SDS011;2783;48.730;8.006;2022-11-14T16:21:56;5.70;;;3.75;;
5521;SDS011;2783;48.730;8.006;2022-11-14T16:24:26;15.95;;;4.10;;
5521;SDS011;2783;48.730;8.006;2022-11-14T16:26:54;8.70;;;4.72;;
5521;SDS011;2783;48.730;8.006;2022-11-14T16:29:19;8.55;;;4.35;;
5521;SDS011;2783;48.730;8.006;2022-11-14T16:31:45;15.00;;;4.43;;
5521;SDS011;2783;48.730;8.006;2022-11-14T16:34:18;9.70;;;3.22;;
5521;SDS011;2783;48.730;8.006;2022-11-14T16:36:44;13.35;;;3.40;;
5521;SDS011;2783;48.730;8.006;2022-11-14T16:39:10;14.68;;;3.60;;
5521;SDS011;2783;48.730;8.006;2022-11-14T16:41:37;7.78;;;3.75;;
5521;SDS011;2783;48.730;8.006;2022-11-14T16:44:03;7.72;;;4.20;;
5521;SDS011;2783;48.730;8.006;2022-11-14T16:46:28;10.63;;;5.65;;
5521;SDS011;2783;48.730;8.006;2022-11-14T16:48:54;10.55;;;6.05;;
5521;SDS011;2783;48.730;8.006;2022-11-14T16:51:19;14.77;;;10.48;;
5521;SDS011;2783;48.730;8.006;2022-11-14T16:53:44;26.58;;;10.63;;
5521;SDS011;2783;48.730;8.006;2022-11-14T16:56:10;18.65;;;8.45;;
5521;SDS011;2783;48.730;8.006;2022-11-14T16:58:37;10.82;;;6.80;;
5521;SDS011;2783;48.730;8.006;2022-11-14T17:01:05;10.43;;;6.30;;
5521;SDS011;2783;48.730;8.006;2022-11-14T17:03:30;11.18;;;6.93;;
5521;SDS011;2783;48.730;8.006;2022-11-14T17:05:56;16.23;;;6.50;;